sensor_id;sensor_type;location;lat;lon;timestamp;temperature;humidity
8527;DHT22;4301;48.362;8.478;2023-05-07T00:00:49;9.90;99.90
8527;DHT22;4301;48.362;8.478;2023-05-07T00:03:16;9.90;99.90
8527;DHT22;4301;48.362;8.478;2023-05-07T00:05:44;9.90;99.90
8527;DHT22;4301;48.362;8.478;2023-05-07T00:08:12;9.90;99.90
8527;DHT22;4301;48.362;8.478;2023-05-07T00:10:39;9.80;99.90
8527;DHT22;4301;48.362;8.478;2023-05-07T00:13:05;9.80;99.90
8527;DHT22;4301;48.362;8.478;2023-05-07T00:15:32;9.80;99.90
8527;DHT22;4301;48.362;8.478;2023-05-07T00:18:01;9.80;99.90
8527;DHT22;4301;48.362;8.478;2023-05-07T00:20:28;9.70;99.90
8527;DHT22;4301;48.362;8.478;2023-05-07T00:22:55;9.70;99.90
8527;DHT22;4301;48.362;8.478;2023-05-07T00:25:22;9.70;99.90
8527;DHT22;4301;48.362;8.478;2023-05-07T00:27:49;9.60;99.90
8527;DHT22;4301;48.362;8.478;2023-05-07T00:30:16;9.60;99.90
8527;DHT22;4301;48.362;8.478;2023-05-07T00:32:43;9.80;99.90
8527;DHT22;4301;48.362;8.478;2023-05-07T00:35:12;9.60;99.90
8527;DHT22;4301;48.362;8.478;2023-05-07T00:37:39;9.50;99.90
8527;DHT22;4301;48.362;8.478;2023-05-07T00:40:07;9.50;99.90
8527;DHT22;4301;48.362;8.478;2023-05-07T00:42:34;9.50;99.90
8527;DHT22;4301;48.362;8.478;2023-05-07T00:45:01;9.50;99.90
8527;DHT22;4301;48.362;8.478;2023-05-07T00:47:28;9.60;99.90
8527;DHT22;4301;48.362;8.478;2023-05-07T00:49:57;9.50;99.90
8527;DHT22;4301;48.362;8.478;2023-05-07T00:52:26;9.50;99.90
8527;DHT22;4301;48.362;8.478;2023-05-07T00:54:53;9.50;99.90
8527;DHT22;4301;48.362;8.478;2023-05-07T00:57:21;9.50;99.90
8527;DHT22;4301;48.362;8.478;2023-05-07T00:59:51;9.50;99.90
8527;DHT22;4301;48.362;8.478;2023-05-07T01:02:18;9.50;99.90
8527;DHT22;4301;48.362;8.478;2023-05-07T01:04:45;9.40;99.90
8527;DHT22;4301;48.362;8.478;2023-05-07T01:07:12;9.40;99.90
8527;DHT22;4301;48.362;8.478;2023-05-07T01:09:41;9.40;99.90
8527;DHT22;4301;48.362;8.478;2023-05-07T01:12:08;9.50;99.90
8527;DHT22;4301;48.362;8.478;2023-05-07T01:14:35;9.40;99.90
8527;DHT22;4301;48.362;8.478;2023-05-07T01:17:02;9.40;99.90
8527;DHT22;4301;48.362;8.478;2023-05-07T01:19:30;9.40;99.90
8527;DHT22;4301;48.362;8.478;2023-05-07T01:22:02;9.40;99.90
8527;DHT22;4301;48.362;8.478;2023-05-07T01:24:31;9.40;99.90
8527;DHT22;4301;48.362;8.478;2023-05-07T01:26:59;9.40;99.90
8527;DHT22;4301;48.362;8.478;2023-05-07T01:29:27;9.30;99.90
8527;DHT22;4301;48.362;8.478;2023-05-07T01:31:55;9.30;99.90
8527;DHT22;4301;48.362;8.478;2023-05-07T01:34:25;9.30;99.90
8527;DHT22;4301;48.362;8.478;2023-05-07T01:36:53;9.30;99.90
8527;DHT22;4301;48.362;8.478;2023-05-07T01:39:24;9.30;99.90
8527;DHT22;4301;48.362;8.478;2023-05-07T01:41:53;9.20;99.90
8527;DHT22;4301;48.362;8.478;2023-05-07T01:44:21;9.20;99.90
8527;DHT22;4301;48.362;8.478;2023-05-07T01:46:49;9.20;99.90
8527;DHT22;4301;48.362;8.478;2023-05-07T01:49:16;9.30;99.90
8527;DHT22;4301;48.362;8.478;2023-05-07T01:51:43;9.20;99.90
8527;DHT22;4301;48.362;8.478;2023-05-07T01:54:11;9.20;99.90
8527;DHT22;4301;48.362;8.478;2023-05-07T01:56:37;9.10;99.90
8527;DHT22;4301;48.362;8.478;2023-05-07T01:59:06;9.10;99.90
8527;DHT22;4301;48.362;8.478;2023-05-07T02:01:33;9.10;99.90
8527;DHT22;4301;48.362;8.478;2023-05-07T02:04:00;9.00;99.90
8527;DHT22;4301;48.362;8.478;2023-05-07T02:06:27;8.90;99.90
8527;DHT22;4301;48.362;8.478;2023-05-07T02:08:54;8.90;99.90
8527;DHT22;4301;48.362;8.478;2023-05-07T02:11:20;8.80;99.90
8527;DHT22;4301;48.362;8.478;2023-05-07T02:13:47;8.80;99.90
8527;DHT22;4301;48.362;8.478;2023-05-07T02:16:16;8.80;99.90
8527;DHT22;4301;48.362;8.478;2023-05-07T02:18:44;8.70;99.90
8527;DHT22;4301;48.362;8.478;2023-05-07T02:21:11;8.70;99.90
8527;DHT22;4301;48.362;8.478;2023-05-07T02:23:38;8.70;99.90
8527;DHT22;4301;48.362;8.478;2023-05-07T02:26:05;8.60;99.90
8527;DHT22;4301;48.362;8.478;2023-05-07T02:28:32;8.60;99.90
8527;DHT22;4301;48.362;8.478;2023-05-07T02:31:02;8.60;99.90
8527;DHT22;4301;48.362;8.478;2023-05-07T02:33:30;8.50;99.90
8527;DHT22;4301;48.362;8.478;2023-05-07T02:36:05;8.50;99.90
8527;DHT22;4301;48.362;8.478;2023-05-07T02:38:33;8.50;99.90
8527;DHT22;4301;48.362;8.478;2023-05-07T02:41:00;8.50;99.90
8527;DHT22;4301;48.362;8.478;2023-05-07T02:43:27;8.50;99.90
8527;DHT22;4301;48.362;8.478;2023-05-07T02:46:02;8.40;99.90
8527;DHT22;4301;48.362;8.478;2023-05-07T02:48:30;8.40;99.90
8527;DHT22;4301;48.362;8.478;2023-05-07T02:50:58;8.40;99.90
8527;DHT22;4301;48.362;8.478;2023-05-07T02:53:25;8.40;99.90
8527;DHT22;4301;48.362;8.478;2023-05-07T02:55:52;8.30;99.90
8527;DHT22;4301;48.362;8.478;2023-05-07T02:58:19;8.30;99.90
8527;DHT22;4301;48.362;8.478;2023-05-07T03:00:46;8.30;99.90
8527;DHT22;4301;48.362;8.478;2023-05-07T03:03:13;8.20;99.90
8527;DHT22;4301;48.362;8.478;2023-05-07T03:05:42;8.20;99.90
8527;DHT22;4301;48.362;8.478;2023-05-07T03:08:09;8.30;99.90
8527;DHT22;4301;48.362;8.478;2023-05-07T03:10:36;8.20;99.90
8527;DHT22;4301;48.362;8.478;2023-05-07T03:13:05;8.20;99.90
8527;DHT22;4301;48.362;8.478;2023-05-07T03:15:31;8.20;99.90
8527;DHT22;4301;48.362;8.478;2023-05-07T03:17:58;8.10;99.90
8527;DHT22;4301;48.362;8.478;2023-05-07T03:20:25;8.10;99.90
8527;DHT22;4301;48.362;8.478;2023-05-07T03:22:54;8.10;99.90
8527;DHT22;4301;48.362;8.478;2023-05-07T03:25:21;8.00;99.90
8527;DHT22;4301;48.362;8.478;2023-05-07T03:27:48;8.00;99.90
8527;DHT22;4301;48.362;8.478;2023-05-07T03:30:16;8.00;99.90
8527;DHT22;4301;48.362;8.478;2023-05-07T03:32:44;8.00;99.90
8527;DHT22;4301;48.362;8.478;2023-05-07T03:35:11;7.80;99.90
8527;DHT22;4301;48.362;8.478;2023-05-07T03:37:39;7.90;99.90
8527;DHT22;4301;48.362;8.478;2023-05-07T03:40:08;7.80;99.90
8527;DHT22;4301;48.362;8.478;2023-05-07T03:42:36;7.80;99.90
8527;DHT22;4301;48.362;8.478;2023-05-07T03:45:04;7.80;99.90
8527;DHT22;4301;48.362;8.478;2023-05-07T03:47:31;7.90;99.90
8527;DHT22;4301;48.362;8.478;2023-05-07T03:49:58;7.90;99.90
8527;DHT22;4301;48.362;8.478;2023-05-07T03:52:25;7.90;99.90
8527;DHT22;4301;48.362;8.478;2023-05-07T03:54:52;7.90;99.90
8527;DHT22;4301;48.362;8.478;2023-05-07T03:57:21;7.80;99.90
8527;DHT22;4301;48.362;8.478;2023-05-07T03:59:48;7.70;99.90
8527;DHT22;4301;48.362;8.478;2023-05-07T04:02:14;7.70;99.90
8527;DHT22;4301;48.362;8.478;2023-05-07T04:04:41;7.70;99.90
8527;DHT22;4301;48.362;8.478;2023-05-07T04:07:08;7.60;99.90
8527;DHT22;4301;48.362;8.478;2023-05-07T04:09:35;7.70;99.90
8527;DHT22;4301;48.362;8.478;2023-05-07T04:12:02;7.70;99.90
8527;DHT22;4301;48.362;8.478;2023-05-07T04:14:31;7.70;99.90
8527;DHT22;4301;48.362;8.478;2023-05-07T04:16:58;7.70;99.90
8527;DHT22;4301;48.362;8.478;2023-05-07T04:19:25;7.70;99.90
8527;DHT22;4301;48.362;8.478;2023-05-07T04:21:52;7.70;99.90
8527;DHT22;4301;48.362;8.478;2023-05-07T04:24:19;7.70;99.90
8527;DHT22;4301;48.362;8.478;2023-05-07T04:26:46;7.80;99.90
8527;DHT22;4301;48.362;8.478;2023-05-07T04:29:13;7.80;99.90
8527;DHT22;4301;48.362;8.478;2023-05-07T04:31:41;7.80;99.90
8527;DHT22;4301;48.362;8.478;2023-05-07T04:34:09;7.90;99.90
8527;DHT22;4301;48.362;8.478;2023-05-07T04:36:37;7.90;99.90
8527;DHT22;4301;48.362;8.478;2023-05-07T04:39:04;7.80;99.90
8527;DHT22;4301;48.362;8.478;2023-05-07T04:41:32;7.80;99.90
8527;DHT22;4301;48.362;8.478;2023-05-07T04:43:59;7.90;99.90
8527;DHT22;4301;48.362;8.478;2023-05-07T04:46:25;7.90;99.90
8527;DHT22;4301;48.362;8.478;2023-05-07T04:48:54;7.90;99.90
8527;DHT22;4301;48.362;8.478;2023-05-07T04:51:21;8.00;99.90
8527;DHT22;4301;48.362;8.478;2023-05-07T04:53:49;8.00;99.90
8527;DHT22;4301;48.362;8.478;2023-05-07T04:56:16;8.10;99.90
8527;DHT22;4301;48.362;8.478;2023-05-07T04:58:42;8.30;99.90
8527;DHT22;4301;48.362;8.478;2023-05-07T05:01:09;8.20;99.90
8527;DHT22;4301;48.362;8.478;2023-05-07T05:03:36;8.50;99.90
8527;DHT22;4301;48.362;8.478;2023-05-07T05:06:06;8.40;99.90
8527;DHT22;4301;48.362;8.478;2023-05-07T05:08:33;8.40;99.90
8527;DHT22;4301;48.362;8.478;2023-05-07T05:11:00;8.50;99.90
8527;DHT22;4301;48.362;8.478;2023-05-07T05:13:27;8.50;99.90
8527;DHT22;4301;48.362;8.478;2023-05-07T05:15:55;8.60;99.90
8527;DHT22;4301;48.362;8.478;2023-05-07T05:18:22;8.70;99.90
8527;DHT22;4301;48.362;8.478;2023-05-07T05:20:51;8.70;99.90
8527;DHT22;4301;48.362;8.478;2023-05-07T05:23:19;8.80;99.90
8527;DHT22;4301;48.362;8.478;2023-05-07T05:25:46;9.00;99.90
8527;DHT22;4301;48.362;8.478;2023-05-07T05:28:13;9.10;99.90
8527;DHT22;4301;48.362;8.478;2023-05-07T05:30:40;9.30;99.90
8527;DHT22;4301;48.362;8.478;2023-05-07T05:33:07;9.40;99.90
8527;DHT22;4301;48.362;8.478;2023-05-07T05:35:34;9.40;99.90
8527;DHT22;4301;48.362;8.478;2023-05-07T05:38:01;9.50;99.90
8527;DHT22;4301;48.362;8.478;2023-05-07T05:40:30;9.50;99.90
8527;DHT22;4301;48.362;8.478;2023-05-07T05:42:57;9.60;99.90
8527;DHT22;4301;48.362;8.478;2023-05-07T05:45:24;9.70;99.90
8527;DHT22;4301;48.362;8.478;2023-05-07T05:47:51;9.80;99.90
8527;DHT22;4301;48.362;8.478;2023-05-07T05:50:18;9.90;99.90
8527;DHT22;4301;48.362;8.478;2023-05-07T05:52:45;10.00;99.90
8527;DHT22;4301;48.362;8.478;2023-05-07T05:55:13;10.10;99.90
8527;DHT22;4301;48.362;8.478;2023-05-07T05:57:41;10.30;99.90
8527;DHT22;4301;48.362;8.478;2023-05-07T06:00:09;10.40;99.90
8527;DHT22;4301;48.362;8.478;2023-05-07T06:02:36;10.60;99.90
8527;DHT22;4301;48.362;8.478;2023-05-07T06:05:03;10.60;99.90
8527;DHT22;4301;48.362;8.478;2023-05-07T06:07:30;10.70;99.90
8527;DHT22;4301;48.362;8.478;2023-05-07T06:09:57;10.80;99.90
8527;DHT22;4301;48.362;8.478;2023-05-07T06:12:24;10.90;99.90
8527;DHT22;4301;48.362;8.478;2023-05-07T06:14:52;11.00;99.90
8527;DHT22;4301;48.362;8.478;2023-05-07T06:17:19;11.10;99.90
8527;DHT22;4301;48.362;8.478;2023-05-07T06:19:46;11.10;99.90
8527;DHT22;4301;48.362;8.478;2023-05-07T06:22:13;11.10;99.90
8527;DHT22;4301;48.362;8.478;2023-05-07T06:24:40;11.10;99.90
8527;DHT22;4301;48.362;8.478;2023-05-07T06:27:07;11.30;99.90
8527;DHT22;4301;48.362;8.478;2023-05-07T06:29:34;11.30;99.90
8527;DHT22;4301;48.362;8.478;2023-05-07T06:32:09;11.50;99.90
8527;DHT22;4301;48.362;8.478;2023-05-07T06:34:36;11.60;99.90
8527;DHT22;4301;48.362;8.478;2023-05-07T06:37:03;11.60;99.90
8527;DHT22;4301;48.362;8.478;2023-05-07T06:39:30;11.80;99.00
8527;DHT22;4301;48.362;8.478;2023-05-07T06:41:57;11.90;99.90
8527;DHT22;4301;48.362;8.478;2023-05-07T06:44:24;12.20;99.90
8527;DHT22;4301;48.362;8.478;2023-05-07T06:46:51;12.30;58.70
8527;DHT22;4301;48.362;8.478;2023-05-07T06:49:19;12.50;55.70
8527;DHT22;4301;48.362;8.478;2023-05-07T06:51:46;12.80;54.70
8527;DHT22;4301;48.362;8.478;2023-05-07T06:54:13;13.00;61.60
8527;DHT22;4301;48.362;8.478;2023-05-07T06:56:40;13.20;24.90
8527;DHT22;4301;48.362;8.478;2023-05-07T06:59:08;13.40;29.80
8527;DHT22;4301;48.362;8.478;2023-05-07T07:01:35;13.60;3.60
8527;DHT22;4301;48.362;8.478;2023-05-07T07:04:02;13.80;29.70
8527;DHT22;4301;48.362;8.478;2023-05-07T07:06:30;14.20;12.50
8527;DHT22;4301;48.362;8.478;2023-05-07T07:08:57;14.70;1.00
8527;DHT22;4301;48.362;8.478;2023-05-07T07:11:24;15.10;1.00
8527;DHT22;4301;48.362;8.478;2023-05-07T07:13:51;15.40;1.00
8527;DHT22;4301;48.362;8.478;2023-05-07T07:16:20;15.80;1.00
8527;DHT22;4301;48.362;8.478;2023-05-07T07:18:46;16.00;1.00
8527;DHT22;4301;48.362;8.478;2023-05-07T07:21:13;16.20;99.90
8527;DHT22;4301;48.362;8.478;2023-05-07T07:23:42;16.30;99.90
8527;DHT22;4301;48.362;8.478;2023-05-07T07:26:09;16.50;99.90
8527;DHT22;4301;48.362;8.478;2023-05-07T07:28:42;16.70;1.00
8527;DHT22;4301;48.362;8.478;2023-05-07T07:31:09;17.10;99.90
8527;DHT22;4301;48.362;8.478;2023-05-07T07:33:36;17.30;94.30
8527;DHT22;4301;48.362;8.478;2023-05-07T07:36:04;17.30;20.40
8527;DHT22;4301;48.362;8.478;2023-05-07T07:38:31;17.60;99.90
8527;DHT22;4301;48.362;8.478;2023-05-07T07:41:00;17.90;1.00
8527;DHT22;4301;48.362;8.478;2023-05-07T07:43:27;18.20;1.00
8527;DHT22;4301;48.362;8.478;2023-05-07T07:45:54;18.30;1.00
8527;DHT22;4301;48.362;8.478;2023-05-07T07:48:21;18.40;99.90
8527;DHT22;4301;48.362;8.478;2023-05-07T07:50:49;18.40;92.30
8527;DHT22;4301;48.362;8.478;2023-05-07T07:53:16;18.50;99.90
8527;DHT22;4301;48.362;8.478;2023-05-07T07:55:43;18.60;1.00
8527;DHT22;4301;48.362;8.478;2023-05-07T07:58:11;18.70;41.40
8527;DHT22;4301;48.362;8.478;2023-05-07T08:00:38;18.90;1.00
8527;DHT22;4301;48.362;8.478;2023-05-07T08:03:05;19.30;1.00
8527;DHT22;4301;48.362;8.478;2023-05-07T08:05:32;19.50;1.00
8527;DHT22;4301;48.362;8.478;2023-05-07T08:07:59;19.70;99.90
8527;DHT22;4301;48.362;8.478;2023-05-07T08:10:26;19.90;54.00
8527;DHT22;4301;48.362;8.478;2023-05-07T08:12:54;20.10;1.00
8527;DHT22;4301;48.362;8.478;2023-05-07T08:15:23;20.50;1.00
8527;DHT22;4301;48.362;8.478;2023-05-07T08:17:50;20.50;1.00
8527;DHT22;4301;48.362;8.478;2023-05-07T08:20:17;20.30;1.00
8527;DHT22;4301;48.362;8.478;2023-05-07T08:22:44;20.30;1.00
8527;DHT22;4301;48.362;8.478;2023-05-07T08:25:11;20.30;1.00
8527;DHT22;4301;48.362;8.478;2023-05-07T08:27:38;20.60;1.00
8527;DHT22;4301;48.362;8.478;2023-05-07T08:30:06;21.00;99.90
8527;DHT22;4301;48.362;8.478;2023-05-07T08:32:34;21.10;99.90
8527;DHT22;4301;48.362;8.478;2023-05-07T08:35:01;21.40;99.90
8527;DHT22;4301;48.362;8.478;2023-05-07T08:37:28;21.70;1.00
8527;DHT22;4301;48.362;8.478;2023-05-07T08:39:55;21.20;1.00
8527;DHT22;4301;48.362;8.478;2023-05-07T08:42:23;21.60;1.00
8527;DHT22;4301;48.362;8.478;2023-05-07T08:44:51;21.80;1.00
8527;DHT22;4301;48.362;8.478;2023-05-07T08:47:22;21.70;1.00
8527;DHT22;4301;48.362;8.478;2023-05-07T08:49:51;21.70;1.00
8527;DHT22;4301;48.362;8.478;2023-05-07T08:52:18;21.60;1.00
8527;DHT22;4301;48.362;8.478;2023-05-07T08:54:46;21.80;1.00
8527;DHT22;4301;48.362;8.478;2023-05-07T08:57:13;21.90;1.00
8527;DHT22;4301;48.362;8.478;2023-05-07T08:59:40;21.70;1.00
8527;DHT22;4301;48.362;8.478;2023-05-07T09:02:09;21.30;1.00
8527;DHT22;4301;48.362;8.478;2023-05-07T09:04:36;21.00;1.00
8527;DHT22;4301;48.362;8.478;2023-05-07T09:07:05;21.20;1.00
8527;DHT22;4301;48.362;8.478;2023-05-07T09:09:32;22.20;1.00
8527;DHT22;4301;48.362;8.478;2023-05-07T09:11:59;22.90;1.00
8527;DHT22;4301;48.362;8.478;2023-05-07T09:14:27;23.40;1.00
8527;DHT22;4301;48.362;8.478;2023-05-07T09:16:55;23.60;1.00
8527;DHT22;4301;48.362;8.478;2023-05-07T09:19:23;24.30;1.00
8527;DHT22;4301;48.362;8.478;2023-05-07T09:21:50;24.20;1.00
8527;DHT22;4301;48.362;8.478;2023-05-07T09:24:25;24.10;1.00
8527;DHT22;4301;48.362;8.478;2023-05-07T09:26:54;24.40;99.90
8527;DHT22;4301;48.362;8.478;2023-05-07T09:29:21;24.60;99.90
8527;DHT22;4301;48.362;8.478;2023-05-07T09:31:48;24.90;99.90
8527;DHT22;4301;48.362;8.478;2023-05-07T09:34:16;24.60;99.90
8527;DHT22;4301;48.362;8.478;2023-05-07T09:36:43;24.70;99.90
8527;DHT22;4301;48.362;8.478;2023-05-07T09:39:10;24.80;99.90
8527;DHT22;4301;48.362;8.478;2023-05-07T09:41:45;24.90;99.90
8527;DHT22;4301;48.362;8.478;2023-05-07T09:44:12;24.80;99.90
8527;DHT22;4301;48.362;8.478;2023-05-07T09:46:43;25.00;99.90
8527;DHT22;4301;48.362;8.478;2023-05-07T09:49:12;25.80;99.90
8527;DHT22;4301;48.362;8.478;2023-05-07T09:51:51;26.00;99.90
8527;DHT22;4301;48.362;8.478;2023-05-07T09:54:18;26.20;99.90
8527;DHT22;4301;48.362;8.478;2023-05-07T09:56:48;27.00;99.90
8527;DHT22;4301;48.362;8.478;2023-05-07T09:59:16;26.60;99.90
8527;DHT22;4301;48.362;8.478;2023-05-07T10:01:44;27.00;99.90
8527;DHT22;4301;48.362;8.478;2023-05-07T10:04:12;27.00;99.90
8527;DHT22;4301;48.362;8.478;2023-05-07T10:06:40;27.00;99.90
8527;DHT22;4301;48.362;8.478;2023-05-07T10:09:07;27.20;99.90
8527;DHT22;4301;48.362;8.478;2023-05-07T10:11:35;27.40;99.90
8527;DHT22;4301;48.362;8.478;2023-05-07T10:14:05;27.30;99.90
8527;DHT22;4301;48.362;8.478;2023-05-07T10:16:34;26.50;99.90
8527;DHT22;4301;48.362;8.478;2023-05-07T10:19:02;26.40;99.90
8527;DHT22;4301;48.362;8.478;2023-05-07T10:21:30;26.60;99.90
8527;DHT22;4301;48.362;8.478;2023-05-07T10:23:59;26.70;99.90
8527;DHT22;4301;48.362;8.478;2023-05-07T10:26:28;27.00;99.90
8527;DHT22;4301;48.362;8.478;2023-05-07T10:28:59;28.10;99.90
8527;DHT22;4301;48.362;8.478;2023-05-07T10:31:55;28.10;99.90
8527;DHT22;4301;48.362;8.478;2023-05-07T10:34:27;28.20;99.90
8527;DHT22;4301;48.362;8.478;2023-05-07T10:36:55;28.70;99.90
8527;DHT22;4301;48.362;8.478;2023-05-07T10:39:23;28.50;99.90
8527;DHT22;4301;48.362;8.478;2023-05-07T10:41:51;28.20;94.80
8527;DHT22;4301;48.362;8.478;2023-05-07T10:44:27;27.00;97.60
8527;DHT22;4301;48.362;8.478;2023-05-07T10:47:09;26.70;99.90
8527;DHT22;4301;48.362;8.478;2023-05-07T10:49:37;26.70;96.90
8527;DHT22;4301;48.362;8.478;2023-05-07T10:52:24;26.80;98.20
8527;DHT22;4301;48.362;8.478;2023-05-07T10:55:20;26.80;94.00
8527;DHT22;4301;48.362;8.478;2023-05-07T10:57:50;26.90;94.80
8527;DHT22;4301;48.362;8.478;2023-05-07T11:00:42;26.90;99.00
8527;DHT22;4301;48.362;8.478;2023-05-07T11:03:11;26.60;97.40
8527;DHT22;4301;48.362;8.478;2023-05-07T11:05:40;26.00;96.20
8527;DHT22;4301;48.362;8.478;2023-05-07T11:08:08;25.70;99.90
8527;DHT22;4301;48.362;8.478;2023-05-07T11:10:51;25.00;99.90
8527;DHT22;4301;48.362;8.478;2023-05-07T11:13:42;24.70;99.90
8527;DHT22;4301;48.362;8.478;2023-05-07T11:16:17;24.20;99.90
8527;DHT22;4301;48.362;8.478;2023-05-07T11:18:50;23.70;99.90
8527;DHT22;4301;48.362;8.478;2023-05-07T11:21:34;23.40;99.90
8527;DHT22;4301;48.362;8.478;2023-05-07T11:24:01;23.20;99.90
8527;DHT22;4301;48.362;8.478;2023-05-07T11:26:30;23.00;99.90
8527;DHT22;4301;48.362;8.478;2023-05-07T11:28:58;22.70;99.90
8527;DHT22;4301;48.362;8.478;2023-05-07T11:31:27;22.60;99.90
8527;DHT22;4301;48.362;8.478;2023-05-07T11:33:57;22.40;99.90
8527;DHT22;4301;48.362;8.478;2023-05-07T11:36:24;22.20;99.90
8527;DHT22;4301;48.362;8.478;2023-05-07T11:38:52;21.80;99.90
8527;DHT22;4301;48.362;8.478;2023-05-07T11:41:19;21.30;99.90
8527;DHT22;4301;48.362;8.478;2023-05-07T11:43:54;21.30;99.90
8527;DHT22;4301;48.362;8.478;2023-05-07T11:46:22;20.60;1.00
8527;DHT22;4301;48.362;8.478;2023-05-07T11:48:49;20.30;1.00
8527;DHT22;4301;48.362;8.478;2023-05-07T11:51:21;19.70;99.90
8527;DHT22;4301;48.362;8.478;2023-05-07T11:53:48;19.00;1.00
8527;DHT22;4301;48.362;8.478;2023-05-07T11:56:16;18.20;1.00
8527;DHT22;4301;48.362;8.478;2023-05-07T11:58:45;17.70;1.00
8527;DHT22;4301;48.362;8.478;2023-05-07T12:01:13;17.40;1.00
8527;DHT22;4301;48.362;8.478;2023-05-07T12:03:41;17.30;4.20
8527;DHT22;4301;48.362;8.478;2023-05-07T12:06:10;17.20;1.00
8527;DHT22;4301;48.362;8.478;2023-05-07T12:08:40;17.20;1.00
8527;DHT22;4301;48.362;8.478;2023-05-07T12:11:08;17.20;1.00
8527;DHT22;4301;48.362;8.478;2023-05-07T12:13:37;17.10;1.00
8527;DHT22;4301;48.362;8.478;2023-05-07T12:16:05;17.10;1.00
8527;DHT22;4301;48.362;8.478;2023-05-07T12:18:34;17.00;51.10
8527;DHT22;4301;48.362;8.478;2023-05-07T12:21:01;16.90;60.50
8527;DHT22;4301;48.362;8.478;2023-05-07T12:23:28;16.80;99.90
8527;DHT22;4301;48.362;8.478;2023-05-07T12:25:57;16.60;99.90
8527;DHT22;4301;48.362;8.478;2023-05-07T12:28:24;16.60;1.00
8527;DHT22;4301;48.362;8.478;2023-05-07T12:30:51;16.60;99.90
8527;DHT22;4301;48.362;8.478;2023-05-07T12:33:22;16.50;87.70
8527;DHT22;4301;48.362;8.478;2023-05-07T12:35:50;16.30;90.20
8527;DHT22;4301;48.362;8.478;2023-05-07T12:38:17;16.10;90.50
8527;DHT22;4301;48.362;8.478;2023-05-07T12:40:46;15.70;71.80
8527;DHT22;4301;48.362;8.478;2023-05-07T12:43:18;15.60;93.40
8527;DHT22;4301;48.362;8.478;2023-05-07T12:45:45;15.60;99.90
8527;DHT22;4301;48.362;8.478;2023-05-07T12:48:13;15.70;99.90
8527;DHT22;4301;48.362;8.478;2023-05-07T12:50:40;15.80;99.90
8527;DHT22;4301;48.362;8.478;2023-05-07T12:53:08;15.90;64.00
8527;DHT22;4301;48.362;8.478;2023-05-07T12:55:44;15.70;99.90
8527;DHT22;4301;48.362;8.478;2023-05-07T12:58:25;15.80;99.90
8527;DHT22;4301;48.362;8.478;2023-05-07T13:00:53;16.00;99.90
8527;DHT22;4301;48.362;8.478;2023-05-07T13:03:25;16.00;99.90
8527;DHT22;4301;48.362;8.478;2023-05-07T13:05:53;16.00;84.50
8527;DHT22;4301;48.362;8.478;2023-05-07T13:08:28;16.00;99.90
8527;DHT22;4301;48.362;8.478;2023-05-07T13:10:56;15.90;99.90
8527;DHT22;4301;48.362;8.478;2023-05-07T13:13:24;15.90;99.90
8527;DHT22;4301;48.362;8.478;2023-05-07T13:15:51;15.90;73.00
8527;DHT22;4301;48.362;8.478;2023-05-07T13:18:18;15.70;97.90
8527;DHT22;4301;48.362;8.478;2023-05-07T13:20:45;15.60;88.60
8527;DHT22;4301;48.362;8.478;2023-05-07T13:23:12;15.80;99.90
8527;DHT22;4301;48.362;8.478;2023-05-07T13:25:39;15.80;99.90
8527;DHT22;4301;48.362;8.478;2023-05-07T13:28:06;15.80;92.50
8527;DHT22;4301;48.362;8.478;2023-05-07T13:30:35;15.90;99.90
8527;DHT22;4301;48.362;8.478;2023-05-07T13:33:02;16.00;68.90
8527;DHT22;4301;48.362;8.478;2023-05-07T13:35:29;16.10;94.90
8527;DHT22;4301;48.362;8.478;2023-05-07T13:37:56;16.10;99.90
8527;DHT22;4301;48.362;8.478;2023-05-07T13:40:23;16.40;83.60
8527;DHT22;4301;48.362;8.478;2023-05-07T13:42:50;16.50;5.70
8527;DHT22;4301;48.362;8.478;2023-05-07T13:45:18;16.70;79.60
8527;DHT22;4301;48.362;8.478;2023-05-07T13:47:46;16.80;1.00
8527;DHT22;4301;48.362;8.478;2023-05-07T13:50:15;17.00;1.00
8527;DHT22;4301;48.362;8.478;2023-05-07T13:52:43;16.90;1.00
8527;DHT22;4301;48.362;8.478;2023-05-07T13:55:16;17.20;1.00
8527;DHT22;4301;48.362;8.478;2023-05-07T13:57:43;17.40;1.00
8527;DHT22;4301;48.362;8.478;2023-05-07T14:00:11;17.40;1.00
8527;DHT22;4301;48.362;8.478;2023-05-07T14:02:38;17.50;1.00
8527;DHT22;4301;48.362;8.478;2023-05-07T14:05:07;17.70;1.00
8527;DHT22;4301;48.362;8.478;2023-05-07T14:07:35;17.80;1.00
8527;DHT22;4301;48.362;8.478;2023-05-07T14:10:02;18.00;99.90
8527;DHT22;4301;48.362;8.478;2023-05-07T14:12:29;18.10;99.90
8527;DHT22;4301;48.362;8.478;2023-05-07T14:14:56;18.00;1.00
8527;DHT22;4301;48.362;8.478;2023-05-07T14:17:23;18.30;99.90
8527;DHT22;4301;48.362;8.478;2023-05-07T14:19:51;18.40;1.00
8527;DHT22;4301;48.362;8.478;2023-05-07T14:22:20;18.40;99.90
8527;DHT22;4301;48.362;8.478;2023-05-07T14:24:48;18.40;1.00
8527;DHT22;4301;48.362;8.478;2023-05-07T14:27:15;18.60;1.00
8527;DHT22;4301;48.362;8.478;2023-05-07T14:29:42;19.10;99.90
8527;DHT22;4301;48.362;8.478;2023-05-07T14:32:11;19.10;99.90
8527;DHT22;4301;48.362;8.478;2023-05-07T14:34:38;19.10;1.00
8527;DHT22;4301;48.362;8.478;2023-05-07T14:37:04;19.00;1.00
8527;DHT22;4301;48.362;8.478;2023-05-07T14:39:33;19.10;1.00
8527;DHT22;4301;48.362;8.478;2023-05-07T14:42:00;18.90;92.40
8527;DHT22;4301;48.362;8.478;2023-05-07T14:44:26;18.50;1.00
8527;DHT22;4301;48.362;8.478;2023-05-07T14:46:53;18.70;1.00
8527;DHT22;4301;48.362;8.478;2023-05-07T14:49:20;18.60;99.90
8527;DHT22;4301;48.362;8.478;2023-05-07T14:51:47;18.60;1.00
8527;DHT22;4301;48.362;8.478;2023-05-07T14:54:15;18.50;99.90
8527;DHT22;4301;48.362;8.478;2023-05-07T14:56:43;18.30;99.90
8527;DHT22;4301;48.362;8.478;2023-05-07T14:59:10;18.20;1.00
8527;DHT22;4301;48.362;8.478;2023-05-07T15:01:37;18.10;1.00
8527;DHT22;4301;48.362;8.478;2023-05-07T15:04:06;18.00;1.00
8527;DHT22;4301;48.362;8.478;2023-05-07T15:06:33;17.90;99.90
8527;DHT22;4301;48.362;8.478;2023-05-07T15:09:00;17.90;67.70
8527;DHT22;4301;48.362;8.478;2023-05-07T15:11:26;17.90;99.90
8527;DHT22;4301;48.362;8.478;2023-05-07T15:13:55;17.80;99.90
8527;DHT22;4301;48.362;8.478;2023-05-07T15:16:22;17.40;1.00
8527;DHT22;4301;48.362;8.478;2023-05-07T15:18:49;17.30;1.00
8527;DHT22;4301;48.362;8.478;2023-05-07T15:21:16;17.30;1.00
8527;DHT22;4301;48.362;8.478;2023-05-07T15:23:43;17.30;1.00
8527;DHT22;4301;48.362;8.478;2023-05-07T15:26:10;17.20;99.90
8527;DHT22;4301;48.362;8.478;2023-05-07T15:28:37;17.10;1.00
8527;DHT22;4301;48.362;8.478;2023-05-07T15:31:06;17.00;1.00
8527;DHT22;4301;48.362;8.478;2023-05-07T15:33:34;16.90;1.00
8527;DHT22;4301;48.362;8.478;2023-05-07T15:36:01;17.00;1.00
8527;DHT22;4301;48.362;8.478;2023-05-07T15:38:28;17.20;1.00
8527;DHT22;4301;48.362;8.478;2023-05-07T15:40:55;17.10;1.00
8527;DHT22;4301;48.362;8.478;2023-05-07T15:43:22;17.30;73.10
8527;DHT22;4301;48.362;8.478;2023-05-07T15:45:50;17.40;7.70
8527;DHT22;4301;48.362;8.478;2023-05-07T15:48:18;17.40;1.00
8527;DHT22;4301;48.362;8.478;2023-05-07T15:50:46;17.40;12.70
8527;DHT22;4301;48.362;8.478;2023-05-07T15:53:12;17.40;53.90
8527;DHT22;4301;48.362;8.478;2023-05-07T15:55:41;17.20;64.90
8527;DHT22;4301;48.362;8.478;2023-05-07T15:58:08;17.20;85.30
8527;DHT22;4301;48.362;8.478;2023-05-07T16:00:35;17.20;79.30
8527;DHT22;4301;48.362;8.478;2023-05-07T16:03:05;17.30;63.70
8527;DHT22;4301;48.362;8.478;2023-05-07T16:05:34;17.30;47.40
8527;DHT22;4301;48.362;8.478;2023-05-07T16:08:01;17.60;30.60
8527;DHT22;4301;48.362;8.478;2023-05-07T16:10:29;17.80;50.70
8527;DHT22;4301;48.362;8.478;2023-05-07T16:12:55;18.00;1.00
8527;DHT22;4301;48.362;8.478;2023-05-07T16:15:22;18.10;1.00
8527;DHT22;4301;48.362;8.478;2023-05-07T16:17:49;18.20;1.00